Time;durP1;ratioP1;P1;durP2;ratioP2;P2;SDS_P1;SDS_P2;PMS_P1;PMS_P2;Temp;Humidity;BMP_temperature;BMP_pressure;BME280_temperature;BME280_humidity;BME280_pressure;Samples;Min_cycle;Max_cycle;Signal;HPM_P1;HPM_P2
2023/07/09 00:02:17;;;;;;;6.15;3.03;;;;;;;21.20;47.92;100218.78;7698129;32;39373;-79
2023/07/09 00:06:34;;;;;;;7.35;3.10;;;;;;;21.12;48.42;100225.19;7711697;32;39851;-79
2023/07/09 00:10:50;;;;;;;8.85;3.30;;;;;;;21.13;48.30;100235.12;7711566;32;37950;-80
2023/07/09 00:15:09;;;;;;;7.60;3.70;;;;;;;21.06;48.69;100227.34;7711332;32;36750;-78
2023/07/09 00:19:29;;;;;;;6.28;3.50;;;;;;;20.93;49.34;100222.81;7710695;32;38257;-80
2023/07/09 00:23:48;;;;;;;5.45;3.12;;;;;;;21.22;49.55;100224.00;7711532;32;39701;-80
2023/07/09 00:28:06;;;;;;;6.03;3.50;;;;;;;20.98;49.26;100214.31;7711485;32;37767;-79
2023/07/09 00:32:24;;;;;;;6.10;3.22;;;;;;;20.90;49.19;100217.91;7711402;32;38340;-80
2023/07/09 00:36:45;;;;;;;4.53;3.17;;;;;;;20.90;49.82;100220.69;7711266;32;40276;-81
2023/07/09 00:41:17;;;;;;;7.03;3.70;;;;;;;20.79;49.83;100217.47;7711336;32;39772;-80
2023/07/09 00:45:33;;;;;;;6.25;3.50;;;;;;;20.64;50.83;100238.19;7711163;32;38252;-81
2023/07/09 00:49:57;;;;;;;6.80;3.40;;;;;;;20.87;50.48;100224.94;7711127;32;37147;-80
2023/07/09 00:54:18;;;;;;;8.27;3.47;;;;;;;20.75;50.59;100220.09;7698250;32;39059;-81
2023/07/09 00:58:37;;;;;;;7.03;3.53;;;;;;;20.71;49.46;100221.88;7697422;32;40006;-81
2023/07/09 01:02:54;;;;;;;4.80;2.90;;;;;;;20.66;49.44;100218.47;7697524;32;38946;-81
2023/07/09 01:07:11;;;;;;;6.45;3.15;;;;;;;20.58;49.11;100220.91;7710892;32;37301;-81
2023/07/09 01:11:28;;;;;;;7.95;3.15;;;;;;;20.41;50.00;100223.69;7697298;32;40129;-81
2023/07/09 01:15:46;;;;;;;4.93;3.28;;;;;;;20.45;49.99;100225.50;7710459;32;40025;-81
2023/07/09 01:20:03;;;;;;;7.43;3.25;;;;;;;20.67;48.98;100236.72;7697240;32;36948;-81
2023/07/09 01:25:04;;;;;;;6.15;3.25;;;;;;;20.62;49.54;100232.97;7710583;32;36749;-81
2023/07/09 01:29:21;;;;;;;8.93;3.58;;;;;;;20.51;50.37;100233.63;7710298;32;39319;-81
2023/07/09 01:33:39;;;;;;;6.72;3.75;;;;;;;20.52;50.55;100222.19;7710222;32;39623;-80
2023/07/09 01:37:55;;;;;;;6.25;3.25;;;;;;;20.56;50.57;100225.97;7710248;32;39152;-81
2023/07/09 01:42:12;;;;;;;5.10;3.00;;;;;;;20.64;50.30;100238.19;7710222;32;37108;-80
2023/07/09 01:46:30;;;;;;;5.65;3.60;;;;;;;20.59;50.30;100233.63;7710061;32;40130;-80
2023/07/09 01:50:49;;;;;;;6.43;3.20;;;;;;;20.53;50.15;100237.69;7709933;32;39968;-81
2023/07/09 01:55:06;;;;;;;5.57;3.28;;;;;;;20.59;49.92;100235.56;7696365;32;38517;-80
2023/07/09 01:59:22;;;;;;;5.05;3.12;;;;;;;20.43;50.06;100238.03;7696106;32;37873;-80
2023/07/09 02:03:39;;;;;;;5.72;2.85;;;;;;;20.30;50.20;100245.38;7709728;32;40187;-80
2023/07/09 02:07:55;;;;;;;6.68;3.42;;;;;;;20.47;49.67;100239.00;7709605;32;39704;-80
2023/07/09 02:12:12;;;;;;;6.25;3.15;;;;;;;20.14;50.46;100233.16;7709564;32;37938;-80
2023/07/09 02:16:29;;;;;;;5.62;3.58;;;;;;;20.10;50.53;100241.28;7709105;32;37079;-81
2023/07/09 02:20:48;;;;;;;6.50;3.42;;;;;;;20.39;49.90;100237.88;7709625;32;37718;-81
2023/07/09 02:25:06;;;;;;;5.25;3.40;;;;;;;20.37;49.86;100239.31;7709065;32;40870;-81
2023/07/09 02:29:23;;;;;;;8.25;3.30;;;;;;;20.32;49.95;100240.31;7695621;32;38745;-81
2023/07/09 02:33:40;;;;;;;5.87;3.17;;;;;;;20.03;50.94;100244.53;7695291;32;38062;-81
2023/07/09 02:37:56;;;;;;;7.53;3.22;;;;;;;20.01;51.10;100243.25;7708744;32;40116;-81
2023/07/09 02:42:15;;;;;;;6.47;3.35;;;;;;;19.97;51.19;100242.25;7709618;32;41252;-81
2023/07/09 02:46:31;;;;;;;5.40;3.20;;;;;;;19.95;51.07;100244.53;7699046;32;37110;-81
2023/07/09 02:50:47;;;;;;;6.78;2.90;;;;;;;19.93;51.38;100253.16;7712543;32;37216;-81
2023/07/09 02:55:04;;;;;;;5.43;2.90;;;;;;;19.92;51.17;100242.41;7712441;32;40219;-81
2023/07/09 02:59:20;;;;;;;6.20;3.37;;;;;;;19.76;51.75;100248.41;7712380;32;39982;-80
2023/07/09 03:03:37;;;;;;;4.50;3.12;;;;;;;20.07;50.68;100258.53;7712366;32;38793;-80
2023/07/09 03:07:53;;;;;;;5.43;3.22;;;;;;;19.90;51.08;100253.78;7712438;32;37629;-80
2023/07/09 03:12:10;;;;;;;5.43;3.20;;;;;;;19.73;51.64;100251.81;7712205;32;40028;-80
2023/07/09 03:16:31;;;;;;;7.22;3.30;;;;;;;19.77;51.68;100255.56;7711977;32;40882;-80
2023/07/09 03:20:48;;;;;;;7.85;3.40;;;;;;;19.80;51.69;100254.94;7712239;32;38903;-80
2023/07/09 03:25:04;;;;;;;6.37;3.60;;;;;;;19.70;52.29;100257.97;7712025;32;37136;-81
2023/07/09 03:29:20;;;;;;;6.70;3.30;;;;;;;19.79;52.06;100264.37;7712214;32;39479;-80
2023/07/09 03:33:37;;;;;;;6.20;3.47;;;;;;;19.85;52.44;100260.31;7712169;32;40009;-80
2023/07/09 03:37:53;;;;;;;6.65;3.40;;;;;;;19.71;53.07;100262.34;7735738;32;38562;-80
2023/07/09 03:42:09;;;;;;;7.20;3.58;;;;;;;19.85;52.50;100263.09;7738892;32;36727;-80
2023/07/09 03:46:27;;;;;;;5.10;3.33;;;;;;;19.97;52.34;100272.69;7739008;32;38266;-80
2023/07/09 03:50:46;;;;;;;5.28;3.58;;;;;;;19.89;53.21;100261.28;7738754;32;39979;-81
2023/07/09 03:55:04;;;;;;;6.53;3.40;;;;;;;19.83;53.53;100259.00;7713069;32;37749;-81
2023/07/09 03:59:20;;;;;;;4.35;3.10;;;;;;;19.79;53.88;100269.09;7698429;32;38194;-82
2023/07/09 04:03:36;;;;;;;4.87;3.40;;;;;;;19.76;54.00;100265.00;7711911;32;39412;-81
2023/07/09 04:07:53;;;;;;;7.95;3.92;;;;;;;19.85;53.49;100274.16;7711844;32;40906;-81
2023/07/09 04:12:10;;;;;;;6.93;3.42;;;;;;;19.95;53.36;100280.50;7711711;32;37742;-81
2023/07/09 04:16:26;;;;;;;5.93;3.67;;;;;;;19.88;53.73;100278.22;7711451;32;37073;-81
2023/07/09 04:20:42;;;;;;;6.22;3.80;;;;;;;19.81;54.29;100273.16;7711754;32;39475;-81
2023/07/09 04:24:59;;;;;;;8.38;3.37;;;;;;;19.85;54.61;100278.84;7711550;32;39980;-80
2023/07/09 04:29:15;;;;;;;5.60;3.35;;;;;;;19.89;54.84;100282.62;7711495;32;37617;-81
2023/07/09 04:33:31;;;;;;;5.87;3.58;;;;;;;19.84;54.86;100283.56;7725813;32;36713;-81
2023/07/09 04:37:47;;;;;;;7.35;3.60;;;;;;;19.94;55.16;100284.41;7714799;32;39484;-80
2023/07/09 04:42:05;;;;;;;6.87;3.67;;;;;;;19.95;55.20;100288.81;7730128;32;40589;-80
2023/07/09 04:46:21;;;;;;;4.97;3.42;;;;;;;19.95;55.19;100280.50;7738104;32;37968;-80
2023/07/09 04:50:40;;;;;;;6.40;3.58;;;;;;;20.12;55.03;100280.53;7738140;32;37142;-67
2023/07/09 04:54:57;;;;;;;7.05;3.67;;;;;;;20.27;54.80;100277.28;7713712;32;38233;-67
2023/07/09 04:59:13;;;;;;;7.10;3.55;;;;;;;20.56;54.32;100277.78;7711255;32;40939;-68
2023/07/09 05:03:29;;;;;;;5.55;3.53;;;;;;;20.81;53.63;100274.16;7720185;32;37690;-69
2023/07/09 05:07:46;;;;;;;7.50;3.72;;;;;;;21.02;51.34;100270.69;7737396;32;37130;-70
2023/07/09 05:12:03;;;;;;;6.62;3.53;;;;;;;21.12;51.35;100275.88;7721337;32;39375;-69
2023/07/09 05:16:20;;;;;;;7.00;3.12;;;;;;;21.29;51.44;100275.00;7710669;32;40615;-71
2023/07/09 05:20:36;;;;;;;6.50;3.72;;;;;;;21.44;51.00;100270.87;7710740;32;37993;-69
2023/07/09 05:24:52;;;;;;;6.90;3.83;;;;;;;21.67;50.64;100274.22;7713654;32;38024;-69
2023/07/09 05:29:09;;;;;;;7.18;3.55;;;;;;;21.85;51.18;100274.09;7737494;32;40024;-69
2023/07/09 05:33:25;;;;;;;6.55;3.37;;;;;;;21.99;50.57;100269.12;7737361;32;39947;-69
2023/07/09 05:37:41;;;;;;;8.30;3.25;;;;;;;22.24;49.99;100269.25;7737175;32;37661;-69
2023/07/09 05:41:57;;;;;;;6.32;3.40;;;;;;;22.52;49.34;100274.28;7737220;32;37152;-69
2023/07/09 05:46:14;;;;;;;7.47;3.10;;;;;;;22.59;47.95;100272.56;7737103;32;40225;-69
2023/07/09 05:50:32;;;;;;;6.53;2.90;;;;;;;22.75;46.29;100275.53;7736921;32;40697;-69
2023/07/09 05:54:53;;;;;;;9.30;3.17;;;;;;;22.77;46.84;100275.19;7736904;32;37040;-69
2023/07/09 05:59:09;;;;;;;6.05;3.15;;;;;;;23.05;47.13;100276.22;7736835;32;36808;-69
2023/07/09 06:03:26;;;;;;;8.60;3.62;;;;;;;23.38;46.93;100274.53;7736605;32;40190;-69
2023/07/09 06:07:43;;;;;;;6.57;3.08;;;;;;;23.57;47.15;100283.09;7736535;32;39611;-70
2023/07/09 06:12:00;;;;;;;6.80;3.62;;;;;;;23.11;50.09;100279.59;7735171;32;37917;-70
2023/07/09 06:16:17;;;;;;;9.73;3.42;;;;;;;23.16;50.00;100281.34;7719688;32;37240;-70
2023/07/09 06:20:33;;;;;;;7.18;3.20;;;;;;;23.27;49.77;100298.37;7737296;32;39355;-74
2023/07/09 06:24:50;;;;;;;10.02;3.60;;;;;;;23.46;49.39;100286.69;7734074;32;39649;-74
2023/07/09 06:29:06;;;;;;;7.30;3.58;;;;;;;23.35;49.72;100292.75;7739481;32;38118;-73
2023/07/09 06:33:25;;;;;;;8.77;3.33;;;;;;;23.74;49.15;100295.16;7739811;32;37781;-73
2023/07/09 06:37:41;;;;;;;9.10;3.28;;;;;;;23.95;46.49;100298.66;7739666;32;40040;-73
2023/07/09 06:41:58;;;;;;;5.62;2.97;;;;;;;23.91;44.61;100294.16;7716592;32;40022;-70
2023/07/09 06:46:15;;;;;;;7.05;3.30;;;;;;;24.43;44.76;100282.19;7712587;32;38810;-70
2023/07/09 06:50:35;;;;;;;6.12;3.50;;;;;;;24.58;44.08;100286.22;7712769;32;36984;-70
2023/07/09 06:54:51;;;;;;;5.80;3.03;;;;;;;24.49;44.23;100280.78;7712564;32;40079;-69
2023/07/09 06:59:08;;;;;;;7.62;3.50;;;;;;;24.58;44.95;100283.44;7712496;32;40944;-69
2023/07/09 07:03:24;;;;;;;8.13;3.67;;;;;;;24.62;44.06;100283.53;7712195;32;37952;-69
2023/07/09 07:07:41;;;;;;;6.55;3.20;;;;;;;25.11;43.75;100288.84;7712018;32;36728;-69
2023/07/09 07:11:57;;;;;;;6.22;3.40;;;;;;;25.33;44.18;100284.66;7712790;32;39869;-70
2023/07/09 07:16:13;;;;;;;10.57;3.55;;;;;;;25.69;43.33;100291.13;7738759;32;39876;-70
2023/07/09 07:20:30;;;;;;;5.82;3.12;;;;;;;25.82;43.17;100289.84;7738988;32;38065;-70
2023/07/09 07:24:47;;;;;;;8.48;3.20;;;;;;;26.01;41.37;100291.91;7739052;32;37146;-71
2023/07/09 07:29:03;;;;;;;6.22;3.05;;;;;;;26.00;41.50;100289.47;7735344;32;39409;-69
2023/07/09 07:33:19;;;;;;;6.12;3.00;;;;;;;26.37;40.62;100281.50;7738933;32;39626;-70
2023/07/09 07:37:35;;;;;;;5.53;3.35;;;;;;;26.47;41.00;100282.88;7727443;32;38831;-70
2023/07/09 07:41:52;;;;;;;11.07;3.70;;;;;;;26.36;39.76;100290.25;7711902;32;37235;-70
2023/07/09 07:46:08;;;;;;;6.68;3.05;;;;;;;26.28;39.38;100282.91;7738795;32;39485;-69
2023/07/09 07:50:25;;;;;;;8.68;3.08;;;;;;;26.25;39.44;100287.25;7738678;32;39869;-70
2023/07/09 07:54:42;;;;;;;5.40;3.17;;;;;;;26.23;39.81;100287.59;7738555;32;38739;-70
2023/07/09 07:58:58;;;;;;;6.85;3.28;;;;;;;26.63;39.68;100282.03;7738547;32;37172;-70
2023/07/09 08:03:14;;;;;;;5.30;3.10;;;;;;;27.21;38.99;100281.13;7738573;32;39395;-69
2023/07/09 08:07:30;;;;;;;7.95;3.25;;;;;;;27.44;38.41;100273.56;7727627;32;40762;-70
2023/07/09 08:11:49;;;;;;;18.17;4.12;;;;;;;27.46;36.29;100276.00;7721069;32;39227;-74
2023/07/09 08:16:06;;;;;;;4.95;2.62;;;;;;;27.62;39.43;100276.62;7731888;32;38965;-76
2023/07/09 08:20:23;;;;;;;6.80;2.75;;;;;;;28.15;36.10;100269.41;7738383;32;40533;-74
2023/07/09 08:24:39;;;;;;;9.35;3.08;;;;;;;28.18;35.57;100279.84;7738458;32;39640;-74
2023/07/09 08:28:55;;;;;;;8.05;3.37;;;;;;;28.36;34.41;100278.09;7723975;32;38764;-69
2023/07/09 08:33:11;;;;;;;11.48;2.97;;;;;;;28.52;35.17;100263.87;7711319;32;37160;-82
2023/07/09 08:37:28;;;;;;;7.00;3.30;;;;;;;28.10;36.19;100271.34;7697566;32;39369;-81
2023/07/09 08:42:07;;;;;;;11.27;3.45;;;;;;;28.47;35.72;100267.00;7710540;32;40730;-83
2023/07/09 08:46:48;;;;;;;5.60;2.80;;;;;;;28.91;34.92;100265.53;7721667;32;38540;-83
2023/07/09 08:51:17;;;;;;;6.70;2.85;;;;;;;29.08;35.00;100258.47;7737850;32;37035;-83
2023/07/09 08:55:40;;;;;;;7.22;3.50;;;;;;;29.45;33.24;100254.81;7737750;32;39060;-83
2023/07/09 09:00:01;;;;;;;7.20;2.90;;;;;;;29.47;32.94;100253.22;7724960;32;40814;-83
2023/07/09 09:04:28;;;;;;;9.55;3.28;;;;;;;29.60;33.08;100253.72;7724506;32;38022;-82
2023/07/09 09:09:21;;;;;;;7.62;3.22;;;;;;;29.34;32.92;100258.34;7706503;32;37119;-83
2023/07/09 09:13:38;;;;;;;6.37;3.22;;;;;;;29.89;32.68;100257.56;7715688;32;39878;-81
2023/07/09 09:17:58;;;;;;;5.65;2.47;;;;;;;30.05;30.87;100250.81;7722133;32;40759;-84
2023/07/09 09:22:18;;;;;;;5.97;2.70;;;;;;;30.14;31.08;100254.84;7721911;32;38060;-83
2023/07/09 09:26:37;;;;;;;6.12;2.72;;;;;;;30.50;30.11;100251.41;7705625;32;36821;-81
2023/07/09 09:30:56;;;;;;;6.45;3.15;;;;;;;30.62;28.65;100248.25;7719748;32;40105;-81
2023/07/09 09:35:17;;;;;;;4.90;2.72;;;;;;;30.17;30.54;100256.09;7721146;32;40853;-81
2023/07/09 09:39:38;;;;;;;7.55;2.85;;;;;;;29.96;27.70;100256.78;7722816;32;38863;-83
2023/07/09 09:43:54;;;;;;;6.12;2.50;;;;;;;29.91;27.03;100252.34;7708952;32;37299;-82
2023/07/09 09:48:30;;;;;;;7.53;2.85;;;;;;;30.21;27.35;100250.47;7722362;32;39126;-82
2023/07/09 09:52:49;;;;;;;4.97;3.00;;;;;;;30.94;26.95;100249.53;7721088;32;39864;-81
2023/07/09 09:57:20;;;;;;;8.43;2.95;;;;;;;30.37;27.03;100247.34;7725486;32;37964;-80
2023/07/09 10:01:38;;;;;;;6.87;2.85;;;;;;;30.85;26.72;100238.62;7722130;32;37286;-82
2023/07/09 10:05:59;;;;;;;6.55;2.50;;;;;;;30.64;27.23;100234.56;7723078;32;39402;-83
2023/07/09 10:10:22;;;;;;;4.18;2.40;;;;;;;31.47;26.52;100233.87;7722270;32;40761;-83
2023/07/09 10:15:24;;;;;;;5.45;2.50;;;;;;;31.16;26.55;100227.84;7729139;32;38681;-84
2023/07/09 10:19:45;;;;;;;6.37;3.00;;;;;;;31.79;23.98;100226.19;7650506;32;37030;-83
2023/07/09 10:24:09;;;;;;;10.77;3.17;;;;;;;31.50;24.97;100233.09;7726004;32;40047;-82
2023/07/09 10:29:02;;;;;;;8.68;2.92;;;;;;;32.18;25.04;100216.81;7739779;32;39004;-83
2023/07/09 10:33:32;;;;;;;9.68;2.75;;;;;;;32.03;25.41;100231.34;7729636;32;38834;-82
2023/07/09 10:38:07;;;;;;;8.63;2.72;;;;;;;31.88;24.63;100222.12;7699501;32;37295;-83
2023/07/09 10:42:35;;;;;;;5.43;2.50;;;;;;;31.43;24.53;100220.56;7730686;32;39868;-82
2023/07/09 10:46:58;;;;;;;4.90;2.40;;;;;;;31.69;23.77;100212.12;7715430;32;40050;-81
2023/07/09 10:51:50;;;;;;;5.03;2.60;;;;;;;31.64;23.98;100221.78;7706393;32;37979;-82
2023/07/09 10:56:11;;;;;;;10.85;2.50;;;;;;;31.79;24.73;100223.37;7725113;32;37823;-81
2023/07/09 11:00:38;;;;;;;4.15;2.20;;;;;;;32.34;23.65;100202.22;7728991;32;38934;-82
2023/07/09 11:05:00;;;;;;;6.25;2.85;;;;;;;32.59;22.46;100203.31;7721077;32;39861;-81
2023/07/09 11:09:24;;;;;;;6.80;2.50;;;;;;;32.60;22.34;100207.72;7725754;32;38872;-81
2023/07/09 11:13:43;;;;;;;5.03;2.60;;;;;;;32.25;23.24;100204.69;7738751;32;38085;-82
2023/07/09 11:18:13;;;;;;;6.50;2.78;;;;;;;32.71;21.76;100200.03;7713817;32;39267;-80
2023/07/09 11:22:41;;;;;;;5.27;2.60;;;;;;;32.22;21.59;100204.69;7719095;32;39964;-80
2023/07/09 11:27:00;;;;;;;4.28;2.60;;;;;;;32.25;24.26;100190.56;7738949;32;38007;-80
2023/07/09 11:31:35;;;;;;;4.37;2.35;;;;;;;32.60;21.96;100188.81;7732688;32;36141;-80
2023/07/09 11:35:54;;;;;;;5.15;2.80;;;;;;;32.46;22.60;100186.84;7699474;32;39117;-80
2023/07/09 11:40:13;;;;;;;4.47;2.42;;;;;;;32.16;22.17;100182.56;7713044;32;40835;-80
2023/07/09 11:44:32;;;;;;;5.57;2.37;;;;;;;32.11;24.11;100180.16;7698500;32;38514;-80
2023/07/09 11:48:49;;;;;;;8.85;2.70;;;;;;;32.76;21.11;100171.34;7724710;32;36988;-81
2023/07/09 11:53:12;;;;;;;5.32;2.67;;;;;;;32.81;22.72;100167.31;7719808;32;39942;-84
2023/07/09 11:57:29;;;;;;;12.98;2.70;;;;;;;33.16;21.52;100160.56;7723972;32;40771;-84
2023/07/09 12:01:48;;;;;;;6.03;2.47;;;;;;;33.54;22.33;100157.75;7711805;32;37654;-85
2023/07/09 12:06:13;;;;;;;6.80;2.30;;;;;;;33.64;20.72;100162.47;7698272;32;37151;-84
2023/07/09 12:10:34;;;;;;;6.43;2.58;;;;;;;34.34;19.14;100161.25;7711587;32;39857;-81
2023/07/09 12:14:50;;;;;;;5.72;2.60;;;;;;;34.08;21.06;100159.16;7696627;32;39981;-81
2023/07/09 12:19:08;;;;;;;4.60;2.47;;;;;;;33.92;21.66;100148.44;7711424;32;38677;-81
2023/07/09 12:23:34;;;;;;;6.75;2.80;;;;;;;34.27;20.60;100152.84;7717871;32;37234;-82
2023/07/09 12:27:50;;;;;;;4.53;2.60;;;;;;;33.31;18.70;100133.78;7735436;32;40175;-82
2023/07/09 12:32:13;;;;;;;4.28;2.50;;;;;;;34.01;19.75;100143.91;7713620;32;40057;-82
2023/07/09 12:36:30;;;;;;;7.97;2.70;;;;;;;33.51;19.66;100133.16;7738070;32;38026;-82
2023/07/09 12:40:47;;;;;;;5.28;2.70;;;;;;;34.31;21.48;100135.84;7738108;32;38106;-82
2023/07/09 12:45:05;;;;;;;4.87;2.65;;;;;;;33.84;21.02;100137.25;7738198;32;39038;-82
2023/07/09 12:49:29;;;;;;;4.28;2.55;;;;;;;34.31;21.45;100124.53;7717500;32;39604;-80
2023/07/09 12:53:46;;;;;;;4.53;2.17;;;;;;;34.00;20.55;100122.47;7711204;32;37881;-81
2023/07/09 12:58:02;;;;;;;5.12;2.53;;;;;;;34.68;19.01;100112.19;7697526;32;37888;-79
2023/07/09 13:02:19;;;;;;;4.25;2.50;;;;;;;34.23;19.12;100115.31;7697738;32;39304;-82
2023/07/09 13:06:36;;;;;;;5.50;2.20;;;;;;;33.85;19.74;100110.56;7697422;32;40020;-82
2023/07/09 13:10:54;;;;;;;12.85;2.60;;;;;;;33.40;20.39;100112.69;7710993;32;37960;-82
2023/07/09 13:15:29;;;;;;;5.47;2.50;;;;;;;33.65;20.54;100103.91;7726064;32;37980;-83
2023/07/09 13:19:46;;;;;;;5.93;2.62;;;;;;;33.46;20.86;100106.19;7727884;32;39565;-84
2023/07/09 13:24:07;;;;;;;5.65;2.70;;;;;;;33.51;20.80;100099.22;7723471;32;40805;-80
2023/07/09 13:28:29;;;;;;;7.18;3.22;;;;;;;33.27;21.16;100096.28;7712620;32;37502;-80
2023/07/09 13:32:49;;;;;;;7.47;2.70;;;;;;;33.81;21.09;100100.53;7719329;32;37878;-82
2023/07/09 13:37:16;;;;;;;4.22;2.40;;;;;;;33.81;19.61;100092.84;7720904;32;39387;-81
2023/07/09 13:41:35;;;;;;;4.40;2.33;;;;;;;33.20;20.90;100093.56;7721042;32;40016;-82
2023/07/09 13:45:53;;;;;;;5.15;2.60;;;;;;;33.59;20.06;100085.84;7709817;32;38158;-78
2023/07/09 13:50:10;;;;;;;4.28;2.50;;;;;;;33.51;19.76;100085.09;7719526;32;35947;-78
2023/07/09 13:54:37;;;;;;;6.85;2.58;;;;;;;33.69;19.96;100084.94;7724899;32;39316;-81
2023/07/09 13:58:53;;;;;;;3.70;2.40;;;;;;;34.45;20.28;100089.53;7729823;32;40857;-80
2023/07/09 14:03:20;;;;;;;4.40;2.58;;;;;;;34.87;20.05;100082.38;7709782;32;38629;-81
2023/07/09 14:07:39;;;;;;;9.10;2.75;;;;;;;34.43;17.88;100073.00;7696438;32;36947;-81
2023/07/09 14:11:55;;;;;;;6.87;2.85;;;;;;;34.13;18.33;100073.81;7709899;32;38996;-82
2023/07/09 14:16:15;;;;;;;7.82;2.65;;;;;;;34.21;20.03;100081.81;7710858;32;39900;-82
2023/07/09 14:20:31;;;;;;;5.22;2.90;;;;;;;33.76;20.20;100072.75;7736153;32;39357;-80
2023/07/09 14:24:47;;;;;;;6.47;2.80;;;;;;;33.54;20.08;100066.53;7722412;32;37617;-80
2023/07/09 14:29:05;;;;;;;5.47;2.83;;;;;;;34.85;20.18;100078.38;7722248;32;39268;-81
2023/07/09 14:33:22;;;;;;;4.40;2.70;;;;;;;35.25;18.82;100067.13;7736000;32;39947;-80
2023/07/09 14:37:39;;;;;;;4.10;2.70;;;;;;;35.59;18.08;100069.69;7711991;32;37940;-80
2023/07/09 14:41:56;;;;;;;4.62;2.97;;;;;;;35.41;17.54;100069.25;7725315;32;37572;-80
2023/07/09 14:46:12;;;;;;;6.95;2.72;;;;;;;35.42;17.70;100068.03;7699128;32;39423;-80
2023/07/09 14:50:29;;;;;;;8.60;2.83;;;;;;;35.29;18.68;100062.19;7712691;32;40058;-80
2023/07/09 14:54:51;;;;;;;5.20;2.67;;;;;;;35.82;18.90;100056.66;7739176;32;38557;-80
2023/07/09 14:59:08;;;;;;;5.30;2.47;;;;;;;36.06;17.80;100060.97;7722035;32;37151;-80
2023/07/09 15:03:26;;;;;;;3.45;2.47;;;;;;;35.99;16.96;100054.66;7718463;32;39495;-80
2023/07/09 15:07:44;;;;;;;3.78;2.42;;;;;;;35.58;18.45;100058.78;7726531;32;39941;-81
2023/07/09 15:12:01;;;;;;;7.10;2.72;;;;;;;35.31;18.26;100054.88;7725617;32;38005;-80
2023/07/09 15:16:17;;;;;;;4.00;2.72;;;;;;;35.66;18.19;100055.34;7735887;32;37061;-80
2023/07/09 15:20:33;;;;;;;6.05;2.75;;;;;;;35.85;17.51;100059.41;7718223;32;39308;-81
2023/07/09 15:24:51;;;;;;;4.55;2.70;;;;;;;35.61;17.57;100049.41;7708127;32;39512;-80
2023/07/09 15:29:14;;;;;;;4.65;2.55;;;;;;;35.63;16.50;100047.72;7720203;32;37621;-80
2023/07/09 15:33:31;;;;;;;6.15;2.42;;;;;;;35.68;17.35;100037.91;7725631;32;38127;-81
2023/07/09 15:37:50;;;;;;;5.40;2.58;;;;;;;35.62;17.56;100040.47;7722362;32;39961;-81
2023/07/09 15:42:11;;;;;;;5.57;2.50;;;;;;;34.70;18.42;100047.44;7718927;32;39893;-81
2023/07/09 15:46:27;;;;;;;3.50;2.37;;;;;;;35.10;18.24;100044.72;7713802;32;36291;-81
2023/07/09 15:50:44;;;;;;;5.18;3.00;;;;;;;34.98;18.85;100037.66;7710073;32;36448;-81
2023/07/09 15:55:00;;;;;;;5.10;2.37;;;;;;;34.84;19.23;100046.44;7721214;32;39473;-80
2023/07/09 15:59:32;;;;;;;4.53;2.80;;;;;;;34.61;20.07;100030.22;7720165;32;40724;-81
2023/07/09 16:04:00;;;;;;;3.97;2.50;;;;;;;34.11;19.49;100029.00;7711807;32;38472;-80
2023/07/09 16:08:17;;;;;;;5.10;2.80;;;;;;;34.32;18.66;100027.88;7728833;32;38289;-81
2023/07/09 16:12:34;;;;;;;4.32;2.87;;;;;;;34.51;19.40;100026.34;7718867;32;40098;-81
2023/07/09 16:16:52;;;;;;;7.40;2.85;;;;;;;34.07;18.39;100021.81;7719951;32;39951;-81
2023/07/09 16:21:30;;;;;;;4.65;2.40;;;;;;;34.08;19.10;100023.37;7710977;32;37983;-81
2023/07/09 16:25:48;;;;;;;7.93;2.60;;;;;;;33.56;19.74;100021.69;7710548;32;37031;-80
2023/07/09 16:30:13;;;;;;;5.37;3.05;;;;;;;33.85;19.97;100030.59;7711182;32;39360;-80
2023/07/09 16:34:31;;;;;;;6.22;2.75;;;;;;;34.16;20.36;100022.06;7697227;32;40068;-81
2023/07/09 16:38:47;;;;;;;5.55;2.80;;;;;;;33.93;20.89;100032.09;7696901;32;38154;-81
2023/07/09 16:43:12;;;;;;;6.90;2.60;;;;;;;33.38;19.95;100021.91;7710902;32;37810;-80
2023/07/09 16:47:30;;;;;;;7.12;2.87;;;;;;;33.60;20.38;100019.59;7697600;32;38966;-80
2023/07/09 16:51:46;;;;;;;8.70;2.80;;;;;;;33.90;20.01;100018.81;7713270;32;40833;-79
2023/07/09 16:56:02;;;;;;;6.85;2.90;;;;;;;33.80;20.84;100016.94;7708011;32;37943;-79
2023/07/09 17:00:28;;;;;;;4.68;2.70;;;;;;;33.95;20.41;100023.19;7716082;32;37991;-80
2023/07/09 17:04:44;;;;;;;5.70;2.55;;;;;;;33.38;20.48;100019.09;7737241;32;39384;-80
2023/07/09 17:09:00;;;;;;;3.90;2.53;;;;;;;33.23;21.04;100024.09;7748054;32;40828;-80
2023/07/09 17:13:27;;;;;;;9.73;4.55;;;;;;;33.14;21.27;100021.78;7710306;32;37845;-80
2023/07/09 17:17:44;;;;;;;9.00;3.03;;;;;;;33.40;21.02;100020.25;7752819;32;37887;-80
2023/07/09 17:22:00;;;;;;;6.93;4.35;;;;;;;33.71;20.92;100020.28;7737296;32;39404;-79
2023/07/09 17:26:19;;;;;;;8.60;4.07;;;;;;;33.68;20.82;100016.31;7714113;32;39887;-80
2023/07/09 17:30:36;;;;;;;8.25;4.60;;;;;;;33.72;21.30;100015.44;7709736;32;38035;-79
2023/07/09 17:34:53;;;;;;;7.47;3.92;;;;;;;33.79;21.59;100020.97;7701874;32;37900;-80
2023/07/09 17:39:20;;;;;;;8.38;3.35;;;;;;;33.64;21.40;100020.37;7735308;32;38937;-80
2023/07/09 17:43:37;;;;;;;7.10;2.85;;;;;;;33.42;21.95;100025.50;7723145;32;40732;-80
2023/07/09 17:47:54;;;;;;;5.95;2.97;;;;;;;33.17;23.67;100026.59;7735387;32;38162;-80
2023/07/09 17:52:18;;;;;;;6.25;3.33;;;;;;;33.13;23.88;100025.78;7735931;32;37826;-79
2023/07/09 17:56:36;;;;;;;7.90;3.62;;;;;;;32.84;24.74;100019.66;7722781;32;39615;-79
2023/07/09 18:00:55;;;;;;;7.82;3.22;;;;;;;32.67;24.91;100018.62;7718085;32;40898;-81
2023/07/09 18:05:28;;;;;;;11.50;3.37;;;;;;;32.49;25.06;100016.72;7709648;32;38850;-81
2023/07/09 18:09:45;;;;;;;12.65;4.50;;;;;;;32.06;26.75;100025.53;7708712;32;37127;-81
2023/07/09 18:14:02;;;;;;;6.07;3.25;;;;;;;31.89;26.83;100029.22;7710679;32;40579;-81
2023/07/09 18:18:19;;;;;;;13.43;3.78;;;;;;;31.52;27.52;100030.66;7712386;32;39906;-82
2023/07/09 18:22:35;;;;;;;8.00;3.40;;;;;;;31.49;26.67;100029.41;7727512;32;38670;-81
2023/07/09 18:26:52;;;;;;;6.15;3.30;;;;;;;31.16;27.84;100039.19;7739645;32;36935;-82
2023/07/09 18:31:11;;;;;;;9.45;5.15;;;;;;;30.95;28.25;100034.44;7728159;32;39381;-81
2023/07/09 18:35:37;;;;;;;11.70;5.37;;;;;;;30.80;28.34;100033.59;7722267;32;40776;-81
2023/07/09 18:39:53;;;;;;;13.70;5.32;;;;;;;30.60;28.10;100039.66;7740229;32;37715;-81
2023/07/09 18:44:21;;;;;;;6.65;4.10;;;;;;;30.50;28.07;100043.28;7765503;32;37097;-81
2023/07/09 18:48:40;;;;;;;6.55;4.03;;;;;;;30.28;27.99;100050.87;7740828;32;38438;-81
2023/07/09 18:52:58;;;;;;;7.72;3.40;;;;;;;30.15;28.43;100044.84;7739024;32;40038;-81
2023/07/09 18:57:16;;;;;;;7.82;2.90;;;;;;;30.04;28.33;100046.81;7738394;32;38739;-82
2023/07/09 19:01:34;;;;;;;5.60;3.20;;;;;;;29.73;29.00;100046.28;7739122;32;37003;-81
2023/07/09 19:05:50;;;;;;;6.90;2.92;;;;;;;29.53;29.85;100060.69;7752930;32;38759;-81
2023/07/09 19:10:35;;;;;;;4.75;2.70;;;;;;;29.39;30.38;100053.00;7746307;32;39962;-81
2023/07/09 19:14:52;;;;;;;10.32;3.85;;;;;;;29.05;31.29;100058.00;7720744;32;37902;-81
2023/07/09 19:19:16;;;;;;;4.93;2.78;;;;;;;28.96;31.00;100072.38;7738302;32;37975;-82
2023/07/09 19:23:32;;;;;;;10.32;3.15;;;;;;;28.69;31.12;100074.56;7725599;32;39382;-82
2023/07/09 19:27:50;;;;;;;10.80;3.25;;;;;;;28.48;32.05;100070.34;7738144;32;39935;-81
2023/07/09 19:32:21;;;;;;;7.40;3.20;;;;;;;28.32;32.33;100075.44;7738941;32;37955;-82
2023/07/09 19:36:37;;;;;;;5.05;3.20;;;;;;;28.26;31.87;100074.16;7736037;32;37922;-81
2023/07/09 19:40:53;;;;;;;10.05;3.37;;;;;;;28.14;32.23;100071.63;7735932;32;38997;-83
2023/07/09 19:45:14;;;;;;;6.07;2.90;;;;;;;27.95;33.61;100076.22;7711873;32;40715;-82
2023/07/09 19:49:31;;;;;;;6.22;3.00;;;;;;;27.85;32.56;100076.88;7713984;32;36899;-83
2023/07/09 19:53:47;;;;;;;5.82;2.70;;;;;;;27.73;34.33;100075.13;7738413;32;38052;-82
2023/07/09 19:58:03;;;;;;;5.45;3.05;;;;;;;27.52;34.49;100081.28;7725219;32;40227;-80
2023/07/09 20:02:29;;;;;;;6.62;3.45;;;;;;;27.43;35.08;100075.19;7712684;32;40520;-80
2023/07/09 20:06:45;;;;;;;5.65;3.42;;;;;;;27.27;35.85;100076.12;7711068;32;37728;-80